الصفحة الرئيسية
METAR-TAF:

METAR-TAF

مطار :

ياكوتسك, روسيا

دائرة عرض: 62-01N, خط طول: 129-43E, ارتفاع: 103 متر

مراقبة الطقس الحالي

تاريخ ووقت الإصدار 41 دقيقة قبل الساعة 09:30UTC
ريح 4 عقدة من الغرب/الجنوب الغربي
درجة الحرارة -21°درجة مئوية
الرطوبة 84%
ضغط 1016 hPa
الرؤية 10 كم أو أكثر
غيوم متفرقة على ارتفاع 2400 قدم

METAR: UEEE 250930Z 25002MPS 9999 SCT024 M21/M23 Q1016 R23L/450151 NOSIG RMK QFE753

زمن: 19:11 (10:11 UTC)

توقعات

تاريخ ووقت الإصدار 2ساعات و 11 دقيقة قبل الساعة 08:00UTC
التوقعات صالحة من25 الساعة 09 UTC إلى 26 الساعة 15 UTC
ريح 6 عقدة من الغرب/الشمال الغربي تتزايد حتى 16 عقدة
الرؤية 10 كم أو أكثر
غيوم متفرقة على ارتفاع 2000 قدم
ملبد بالغيوم على ارتفاع 7000 قدم
مؤقت
من 25 الساعة 09 UTC إلى 25 الساعة 23 UTC
الرؤية: 3200 متر
غيوم متفرقة على ارتفاع 1000 قدم
غيوم مفككة على ارتفاع 2000 قدم
ملبد بالغيوم على ارتفاع 7000 قدم
ثلوج خفيفة

TAF: UEEE 250800Z 2509/2615 29003G08MPS 9999 SCT020 OVC070 TEMPO 2509/2523 3200 -SN SCT010 BKN020 OVC070

أرصاد الطقس والتوقعات من أكثر من 4000 مطار (تقارير الطقس للمطار METAR والتنبؤ بالطقس بالمطارTAF).

المحطات المتاحة هي النقط الصفراء والحمراء على الخريطة.

حرك المؤشر فوق النقطة لمعرفة اسم المحطة.

ثم انقر لمعرفة أرصاد وتوقعات الطقس.

لتغيير الخارطة: اضغط على الأزرار الخضراء مع رمز الصليب الأسود للتكبير. على الزر الأخضر مع شرطة للتصغير، أو على الأسهم الخضراء للخرائط المجاورة.


METAR-TAF: